Aviation Digital Data Service (ADDS)

Output produced by METARs form (0802 UTC 11 December 2016)
found at http://aviationweather.gov/adds/metars/
 
KPGV 110531Z 1106/1206 00000KT P6SM SKC 
     FM111600 VRB05KT P6SM SCT250 
     FM112000 15004KT P6SM SCT030 BKN045 AMD LTD TO CLD VIS AND WIND